sensor_id;sensor_type;location;lat;lon;timestamp;temperature;humidity
67862;DHT22;54665;51.462;6.698;2023-12-20T00:00:37;8.33;94.72
67862;DHT22;54665;51.462;6.698;2023-12-20T00:02:37;8.29;94.60
67862;DHT22;54665;51.462;6.698;2023-12-20T00:04:38;8.18;94.70
67862;DHT22;54665;51.462;6.698;2023-12-20T00:06:38;8.18;94.64
67862;DHT22;54665;51.462;6.698;2023-12-20T00:08:38;8.08;94.90
67862;DHT22;54665;51.462;6.698;2023-12-20T00:10:39;8.01;94.99
67862;DHT22;54665;51.462;6.698;2023-12-20T00:12:39;7.85;94.68
67862;DHT22;54665;51.462;6.698;2023-12-20T00:14:39;7.90;95.07
67862;DHT22;54665;51.462;6.698;2023-12-20T00:16:39;7.85;94.97
67862;DHT22;54665;51.462;6.698;2023-12-20T00:18:40;7.81;94.90
67862;DHT22;54665;51.462;6.698;2023-12-20T00:20:40;7.90;94.77
67862;DHT22;54665;51.462;6.698;2023-12-20T00:22:40;7.88;94.72
67862;DHT22;54665;51.462;6.698;2023-12-20T00:24:40;7.84;94.61
67862;DHT22;54665;51.462;6.698;2023-12-20T00:26:41;7.80;94.60
67862;DHT22;54665;51.462;6.698;2023-12-20T00:28:41;7.92;94.39
67862;DHT22;54665;51.462;6.698;2023-12-20T00:30:44;7.78;94.50
67862;DHT22;54665;51.462;6.698;2023-12-20T00:32:45;7.78;94.51
67862;DHT22;54665;51.462;6.698;2023-12-20T00:34:45;7.90;94.30
67862;DHT22;54665;51.462;6.698;2023-12-20T00:36:45;7.77;94.36
67862;DHT22;54665;51.462;6.698;2023-12-20T00:38:48;7.75;94.02
67862;DHT22;54665;51.462;6.698;2023-12-20T00:40:48;7.70;94.17
67862;DHT22;54665;51.462;6.698;2023-12-20T00:42:49;7.80;94.09
67862;DHT22;54665;51.462;6.698;2023-12-20T00:44:49;7.66;94.20
67862;DHT22;54665;51.462;6.698;2023-12-20T00:46:49;7.78;94.13
67862;DHT22;54665;51.462;6.698;2023-12-20T00:48:49;7.71;94.17
67862;DHT22;54665;51.462;6.698;2023-12-20T00:50:50;7.56;94.83
67862;DHT22;54665;51.462;6.698;2023-12-20T00:52:50;7.66;94.33
67862;DHT22;54665;51.462;6.698;2023-12-20T00:54:51;7.69;93.80
67862;DHT22;54665;51.462;6.698;2023-12-20T00:56:51;7.63;93.82
67862;DHT22;54665;51.462;6.698;2023-12-20T00:58:52;7.87;93.25
67862;DHT22;54665;51.462;6.698;2023-12-20T01:00:52;7.91;93.37
67862;DHT22;54665;51.462;6.698;2023-12-20T01:02:52;7.88;93.59
67862;DHT22;54665;51.462;6.698;2023-12-20T01:04:53;7.75;93.99
67862;DHT22;54665;51.462;6.698;2023-12-20T01:06:53;7.73;93.53
67862;DHT22;54665;51.462;6.698;2023-12-20T01:08:53;7.88;93.77
67862;DHT22;54665;51.462;6.698;2023-12-20T01:10:54;7.85;93.70
67862;DHT22;54665;51.462;6.698;2023-12-20T01:12:54;7.97;93.58
67862;DHT22;54665;51.462;6.698;2023-12-20T01:14:55;7.95;93.64
67862;DHT22;54665;51.462;6.698;2023-12-20T01:16:55;7.91;93.67
67862;DHT22;54665;51.462;6.698;2023-12-20T01:18:55;7.83;93.57
67862;DHT22;54665;51.462;6.698;2023-12-20T01:20:56;7.77;93.98
67862;DHT22;54665;51.462;6.698;2023-12-20T01:22:56;7.92;93.39
67862;DHT22;54665;51.462;6.698;2023-12-20T01:24:57;7.81;93.08
67862;DHT22;54665;51.462;6.698;2023-12-20T01:26:57;7.95;92.86
67862;DHT22;54665;51.462;6.698;2023-12-20T01:28:57;7.84;92.83
67862;DHT22;54665;51.462;6.698;2023-12-20T01:30:58;7.59;93.20
67862;DHT22;54665;51.462;6.698;2023-12-20T01:33:00;7.73;92.57
67862;DHT22;54665;51.462;6.698;2023-12-20T01:35:00;7.64;92.82
67862;DHT22;54665;51.462;6.698;2023-12-20T01:37:00;7.51;93.13
67862;DHT22;54665;51.462;6.698;2023-12-20T01:39:01;7.42;92.74
67862;DHT22;54665;51.462;6.698;2023-12-20T01:41:01;7.47;92.83
67862;DHT22;54665;51.462;6.698;2023-12-20T01:43:10;7.29;93.17
67862;DHT22;54665;51.462;6.698;2023-12-20T01:45:11;7.37;92.76
67862;DHT22;54665;51.462;6.698;2023-12-20T01:47:12;7.36;92.69
67862;DHT22;54665;51.462;6.698;2023-12-20T01:49:12;7.24;93.19
67862;DHT22;54665;51.462;6.698;2023-12-20T01:51:13;7.22;93.00
67862;DHT22;54665;51.462;6.698;2023-12-20T01:53:14;7.24;93.03
67862;DHT22;54665;51.462;6.698;2023-12-20T01:55:14;7.26;93.07
67862;DHT22;54665;51.462;6.698;2023-12-20T01:57:15;7.20;93.12
67862;DHT22;54665;51.462;6.698;2023-12-20T01:59:15;7.16;93.31
67862;DHT22;54665;51.462;6.698;2023-12-20T02:01:16;7.16;93.27
67862;DHT22;54665;51.462;6.698;2023-12-20T02:03:18;7.13;93.02
67862;DHT22;54665;51.462;6.698;2023-12-20T02:05:18;7.09;93.47
67862;DHT22;54665;51.462;6.698;2023-12-20T02:07:20;7.09;93.53
67862;DHT22;54665;51.462;6.698;2023-12-20T02:09:22;7.05;93.48
67862;DHT22;54665;51.462;6.698;2023-12-20T02:11:22;7.03;93.83
67862;DHT22;54665;51.462;6.698;2023-12-20T02:13:22;7.06;93.63
67862;DHT22;54665;51.462;6.698;2023-12-20T02:15:23;7.05;93.51
67862;DHT22;54665;51.462;6.698;2023-12-20T02:17:23;7.02;93.57
67862;DHT22;54665;51.462;6.698;2023-12-20T02:19:24;6.98;93.58
67862;DHT22;54665;51.462;6.698;2023-12-20T02:21:25;6.92;93.82
67862;DHT22;54665;51.462;6.698;2023-12-20T02:23:26;6.92;93.86
67862;DHT22;54665;51.462;6.698;2023-12-20T02:25:26;6.96;93.73
67862;DHT22;54665;51.462;6.698;2023-12-20T02:27:27;6.78;93.95
67862;DHT22;54665;51.462;6.698;2023-12-20T02:29:27;6.81;94.13
67862;DHT22;54665;51.462;6.698;2023-12-20T02:31:28;6.82;93.83
67862;DHT22;54665;51.462;6.698;2023-12-20T02:33:28;6.74;94.11
67862;DHT22;54665;51.462;6.698;2023-12-20T02:35:28;6.78;94.00
67862;DHT22;54665;51.462;6.698;2023-12-20T02:37:29;6.68;94.07
67862;DHT22;54665;51.462;6.698;2023-12-20T02:39:30;6.61;94.11
67862;DHT22;54665;51.462;6.698;2023-12-20T02:41:30;6.60;94.36
67862;DHT22;54665;51.462;6.698;2023-12-20T02:43:31;6.64;94.10
67862;DHT22;54665;51.462;6.698;2023-12-20T02:45:31;6.58;94.07
67862;DHT22;54665;51.462;6.698;2023-12-20T02:47:31;6.57;94.06
67862;DHT22;54665;51.462;6.698;2023-12-20T02:49:32;6.54;94.12
67862;DHT22;54665;51.462;6.698;2023-12-20T02:51:32;6.38;94.24
67862;DHT22;54665;51.462;6.698;2023-12-20T02:53:32;6.47;94.17
67862;DHT22;54665;51.462;6.698;2023-12-20T02:55:32;6.42;94.01
67862;DHT22;54665;51.462;6.698;2023-12-20T02:57:33;6.37;94.11
67862;DHT22;54665;51.462;6.698;2023-12-20T02:59:33;6.40;94.13
67862;DHT22;54665;51.462;6.698;2023-12-20T03:01:34;6.40;94.10
67862;DHT22;54665;51.462;6.698;2023-12-20T03:03:34;6.57;94.03
67862;DHT22;54665;51.462;6.698;2023-12-20T03:05:35;6.65;93.80
67862;DHT22;54665;51.462;6.698;2023-12-20T03:07:37;6.70;93.72
67862;DHT22;54665;51.462;6.698;2023-12-20T03:09:37;6.71;93.53
67862;DHT22;54665;51.462;6.698;2023-12-20T03:11:37;6.60;93.68
67862;DHT22;54665;51.462;6.698;2023-12-20T03:13:38;6.55;93.56
67862;DHT22;54665;51.462;6.698;2023-12-20T03:15:41;6.74;93.43
67862;DHT22;54665;51.462;6.698;2023-12-20T03:17:41;6.60;93.43
67862;DHT22;54665;51.462;6.698;2023-12-20T03:19:45;6.61;93.42
67862;DHT22;54665;51.462;6.698;2023-12-20T03:21:45;6.58;93.56
67862;DHT22;54665;51.462;6.698;2023-12-20T03:23:45;6.63;93.42
67862;DHT22;54665;51.462;6.698;2023-12-20T03:25:46;6.63;93.71
67862;DHT22;54665;51.462;6.698;2023-12-20T03:27:46;6.63;93.37
67862;DHT22;54665;51.462;6.698;2023-12-20T03:29:46;6.71;93.27
67862;DHT22;54665;51.462;6.698;2023-12-20T03:31:46;6.58;93.42
67862;DHT22;54665;51.462;6.698;2023-12-20T03:33:47;6.61;93.52
67862;DHT22;54665;51.462;6.698;2023-12-20T03:35:47;6.65;93.13
67862;DHT22;54665;51.462;6.698;2023-12-20T03:37:47;6.55;93.37
67862;DHT22;54665;51.462;6.698;2023-12-20T03:39:48;6.51;93.63
67862;DHT22;54665;51.462;6.698;2023-12-20T03:41:48;6.41;93.82
67862;DHT22;54665;51.462;6.698;2023-12-20T03:43:48;6.37;93.54
67862;DHT22;54665;51.462;6.698;2023-12-20T03:45:48;6.44;93.55
67862;DHT22;54665;51.462;6.698;2023-12-20T03:47:49;6.31;93.72
67862;DHT22;54665;51.462;6.698;2023-12-20T03:49:49;6.38;93.41
67862;DHT22;54665;51.462;6.698;2023-12-20T03:51:49;6.29;93.91
67862;DHT22;54665;51.462;6.698;2023-12-20T03:53:49;6.29;93.94
67862;DHT22;54665;51.462;6.698;2023-12-20T03:55:50;6.24;93.50
67862;DHT22;54665;51.462;6.698;2023-12-20T03:57:50;6.13;94.07
67862;DHT22;54665;51.462;6.698;2023-12-20T03:59:50;6.16;94.22
67862;DHT22;54665;51.462;6.698;2023-12-20T04:01:51;6.11;94.21
67862;DHT22;54665;51.462;6.698;2023-12-20T04:03:51;6.19;93.89
67862;DHT22;54665;51.462;6.698;2023-12-20T04:05:51;6.14;94.22
67862;DHT22;54665;51.462;6.698;2023-12-20T04:07:52;6.19;94.01
67862;DHT22;54665;51.462;6.698;2023-12-20T04:09:52;6.11;93.95
67862;DHT22;54665;51.462;6.698;2023-12-20T04:11:52;6.14;93.87
67862;DHT22;54665;51.462;6.698;2023-12-20T04:13:53;6.17;94.08
67862;DHT22;54665;51.462;6.698;2023-12-20T04:15:53;6.24;93.92
67862;DHT22;54665;51.462;6.698;2023-12-20T04:17:53;6.16;94.04
67862;DHT22;54665;51.462;6.698;2023-12-20T04:19:54;6.29;93.67
67862;DHT22;54665;51.462;6.698;2023-12-20T04:21:54;6.36;93.76
67862;DHT22;54665;51.462;6.698;2023-12-20T04:23:54;6.27;93.78
67862;DHT22;54665;51.462;6.698;2023-12-20T04:25:54;6.40;93.54
67862;DHT22;54665;51.462;6.698;2023-12-20T04:27:55;6.27;93.92
67862;DHT22;54665;51.462;6.698;2023-12-20T04:29:55;6.38;93.97
67862;DHT22;54665;51.462;6.698;2023-12-20T04:31:55;6.44;93.67
67862;DHT22;54665;51.462;6.698;2023-12-20T04:33:56;6.51;93.52
67862;DHT22;54665;51.462;6.698;2023-12-20T04:35:56;6.57;93.45
67862;DHT22;54665;51.462;6.698;2023-12-20T04:37:56;6.50;93.48
67862;DHT22;54665;51.462;6.698;2023-12-20T04:39:56;6.44;93.48
67862;DHT22;54665;51.462;6.698;2023-12-20T04:41:57;6.55;93.43
67862;DHT22;54665;51.462;6.698;2023-12-20T04:43:57;6.52;93.45
67862;DHT22;54665;51.462;6.698;2023-12-20T04:45:57;6.52;93.15
67862;DHT22;54665;51.462;6.698;2023-12-20T04:47:57;6.36;93.42
67862;DHT22;54665;51.462;6.698;2023-12-20T04:49:58;6.30;93.63
67862;DHT22;54665;51.462;6.698;2023-12-20T04:51:58;6.23;93.62
67862;DHT22;54665;51.462;6.698;2023-12-20T04:53:58;6.24;93.80
67862;DHT22;54665;51.462;6.698;2023-12-20T04:55:59;6.10;93.77
67862;DHT22;54665;51.462;6.698;2023-12-20T04:57:59;6.13;93.82
67862;DHT22;54665;51.462;6.698;2023-12-20T04:59:59;6.13;93.97
67862;DHT22;54665;51.462;6.698;2023-12-20T05:01:59;6.11;93.72
67862;DHT22;54665;51.462;6.698;2023-12-20T05:04:00;6.02;93.94
67862;DHT22;54665;51.462;6.698;2023-12-20T05:06:00;6.00;93.96
67862;DHT22;54665;51.462;6.698;2023-12-20T05:08:00;5.95;94.26
67862;DHT22;54665;51.462;6.698;2023-12-20T05:10:01;6.03;94.21
67862;DHT22;54665;51.462;6.698;2023-12-20T05:12:02;6.13;94.15
67862;DHT22;54665;51.462;6.698;2023-12-20T05:14:05;6.07;94.00
67862;DHT22;54665;51.462;6.698;2023-12-20T05:16:05;6.10;93.96
67862;DHT22;54665;51.462;6.698;2023-12-20T05:18:06;6.17;93.89
67862;DHT22;54665;51.462;6.698;2023-12-20T05:20:07;6.27;93.73
67862;DHT22;54665;51.462;6.698;2023-12-20T05:22:07;6.29;93.69
67862;DHT22;54665;51.462;6.698;2023-12-20T05:24:08;6.27;93.58
67862;DHT22;54665;51.462;6.698;2023-12-20T05:26:08;6.33;93.67
67862;DHT22;54665;51.462;6.698;2023-12-20T05:28:08;6.37;93.56
67862;DHT22;54665;51.462;6.698;2023-12-20T05:30:09;6.47;93.52
67862;DHT22;54665;51.462;6.698;2023-12-20T05:32:10;6.33;93.45
67862;DHT22;54665;51.462;6.698;2023-12-20T05:34:10;6.38;93.42
67862;DHT22;54665;51.462;6.698;2023-12-20T05:36:10;6.34;93.69
67862;DHT22;54665;51.462;6.698;2023-12-20T05:38:11;6.44;93.35
67862;DHT22;54665;51.462;6.698;2023-12-20T05:40:11;6.38;93.15
67862;DHT22;54665;51.462;6.698;2023-12-20T05:42:11;6.47;93.14
67862;DHT22;54665;51.462;6.698;2023-12-20T05:44:12;6.42;93.38
67862;DHT22;54665;51.462;6.698;2023-12-20T05:46:12;6.36;93.21
67862;DHT22;54665;51.462;6.698;2023-12-20T05:48:12;6.50;93.30
67862;DHT22;54665;51.462;6.698;2023-12-20T05:50:12;6.38;93.28
67862;DHT22;54665;51.462;6.698;2023-12-20T05:52:13;6.58;92.97
67862;DHT22;54665;51.462;6.698;2023-12-20T05:54:13;6.42;93.05
67862;DHT22;54665;51.462;6.698;2023-12-20T05:56:13;6.47;93.16
67862;DHT22;54665;51.462;6.698;2023-12-20T05:58:13;6.48;93.06
67862;DHT22;54665;51.462;6.698;2023-12-20T06:00:14;6.52;93.06
67862;DHT22;54665;51.462;6.698;2023-12-20T06:02:15;6.51;93.23
67862;DHT22;54665;51.462;6.698;2023-12-20T06:04:15;6.63;93.16
67862;DHT22;54665;51.462;6.698;2023-12-20T06:06:15;6.64;92.81
67862;DHT22;54665;51.462;6.698;2023-12-20T06:08:16;6.64;92.86
67862;DHT22;54665;51.462;6.698;2023-12-20T06:10:16;6.74;92.62
67862;DHT22;54665;51.462;6.698;2023-12-20T06:12:17;6.55;92.89
67862;DHT22;54665;51.462;6.698;2023-12-20T06:14:17;6.64;92.68
67862;DHT22;54665;51.462;6.698;2023-12-20T06:16:18;6.75;92.56
67862;DHT22;54665;51.462;6.698;2023-12-20T06:18:18;6.70;92.79
67862;DHT22;54665;51.462;6.698;2023-12-20T06:20:18;6.71;92.80
67862;DHT22;54665;51.462;6.698;2023-12-20T06:22:19;6.81;92.56
67862;DHT22;54665;51.462;6.698;2023-12-20T06:24:19;6.71;92.59
67862;DHT22;54665;51.462;6.698;2023-12-20T06:26:19;6.72;92.51
67862;DHT22;54665;51.462;6.698;2023-12-20T06:28:20;6.74;92.45
67862;DHT22;54665;51.462;6.698;2023-12-20T06:30:20;6.74;92.45
67862;DHT22;54665;51.462;6.698;2023-12-20T06:32:20;6.77;92.31
67862;DHT22;54665;51.462;6.698;2023-12-20T06:34:21;6.91;91.78
67862;DHT22;54665;51.462;6.698;2023-12-20T06:36:21;6.87;91.79
67862;DHT22;54665;51.462;6.698;2023-12-20T06:38:21;6.98;91.56
67862;DHT22;54665;51.462;6.698;2023-12-20T06:40:21;6.91;91.88
67862;DHT22;54665;51.462;6.698;2023-12-20T06:42:22;6.91;91.92
67862;DHT22;54665;51.462;6.698;2023-12-20T06:44:22;6.87;91.70
67862;DHT22;54665;51.462;6.698;2023-12-20T06:46:23;6.95;91.85
67862;DHT22;54665;51.462;6.698;2023-12-20T06:48:23;7.03;91.73
67862;DHT22;54665;51.462;6.698;2023-12-20T06:50:24;7.05;91.73
67862;DHT22;54665;51.462;6.698;2023-12-20T06:52:24;7.02;91.48
67862;DHT22;54665;51.462;6.698;2023-12-20T06:54:24;6.98;91.27
67862;DHT22;54665;51.462;6.698;2023-12-20T06:56:25;6.88;91.64
67862;DHT22;54665;51.462;6.698;2023-12-20T06:58:25;6.99;91.61
67862;DHT22;54665;51.462;6.698;2023-12-20T07:00:25;6.98;91.29
67862;DHT22;54665;51.462;6.698;2023-12-20T07:02:25;7.24;91.06
67862;DHT22;54665;51.462;6.698;2023-12-20T07:04:26;7.12;91.19
67862;DHT22;54665;51.462;6.698;2023-12-20T07:06:26;7.10;91.35
67862;DHT22;54665;51.462;6.698;2023-12-20T07:08:26;7.20;91.11
67862;DHT22;54665;51.462;6.698;2023-12-20T07:10:27;7.18;91.36
67862;DHT22;54665;51.462;6.698;2023-12-20T07:12:27;7.16;91.25
67862;DHT22;54665;51.462;6.698;2023-12-20T07:14:27;7.13;91.38
67862;DHT22;54665;51.462;6.698;2023-12-20T07:16:27;7.16;90.98
67862;DHT22;54665;51.462;6.698;2023-12-20T07:18:28;7.16;90.67
67862;DHT22;54665;51.462;6.698;2023-12-20T07:20:28;7.19;90.79
67862;DHT22;54665;51.462;6.698;2023-12-20T07:22:29;7.18;90.62
67862;DHT22;54665;51.462;6.698;2023-12-20T07:24:30;7.22;90.66
67862;DHT22;54665;51.462;6.698;2023-12-20T07:26:30;7.30;90.71
67862;DHT22;54665;51.462;6.698;2023-12-20T07:28:30;7.20;90.66
67862;DHT22;54665;51.462;6.698;2023-12-20T07:30:30;7.27;90.45
67862;DHT22;54665;51.462;6.698;2023-12-20T07:32:31;7.32;90.30
67862;DHT22;54665;51.462;6.698;2023-12-20T07:34:31;7.24;90.28
67862;DHT22;54665;51.462;6.698;2023-12-20T07:36:32;7.26;90.57
67862;DHT22;54665;51.462;6.698;2023-12-20T07:38:32;7.37;90.32
67862;DHT22;54665;51.462;6.698;2023-12-20T07:40:32;7.39;89.91
67862;DHT22;54665;51.462;6.698;2023-12-20T07:42:33;7.42;89.96
67862;DHT22;54665;51.462;6.698;2023-12-20T07:44:33;7.33;90.38
67862;DHT22;54665;51.462;6.698;2023-12-20T07:46:33;7.27;90.26
67862;DHT22;54665;51.462;6.698;2023-12-20T07:48:37;7.40;89.87
67862;DHT22;54665;51.462;6.698;2023-12-20T07:50:38;7.44;89.71
67862;DHT22;54665;51.462;6.698;2023-12-20T07:52:38;7.50;89.81
67862;DHT22;54665;51.462;6.698;2023-12-20T07:54:38;7.46;89.60
67862;DHT22;54665;51.462;6.698;2023-12-20T07:56:39;7.42;89.78
67862;DHT22;54665;51.462;6.698;2023-12-20T07:58:39;7.47;89.72
67862;DHT22;54665;51.462;6.698;2023-12-20T08:00:39;7.46;89.73
67862;DHT22;54665;51.462;6.698;2023-12-20T08:02:40;7.51;89.26
67862;DHT22;54665;51.462;6.698;2023-12-20T08:04:40;7.53;89.55
67862;DHT22;54665;51.462;6.698;2023-12-20T08:06:40;7.49;89.58
67862;DHT22;54665;51.462;6.698;2023-12-20T08:08:41;7.47;89.14
67862;DHT22;54665;51.462;6.698;2023-12-20T08:10:41;7.53;89.16
67862;DHT22;54665;51.462;6.698;2023-12-20T08:12:41;7.50;89.47
67862;DHT22;54665;51.462;6.698;2023-12-20T08:14:42;7.54;89.49
67862;DHT22;54665;51.462;6.698;2023-12-20T08:16:42;7.44;89.12
67862;DHT22;54665;51.462;6.698;2023-12-20T08:18:43;7.50;89.01
67862;DHT22;54665;51.462;6.698;2023-12-20T08:20:43;7.61;89.03
67862;DHT22;54665;51.462;6.698;2023-12-20T08:22:43;7.50;88.99
67862;DHT22;54665;51.462;6.698;2023-12-20T08:24:43;7.37;89.21
67862;DHT22;54665;51.462;6.698;2023-12-20T08:26:44;7.59;88.80
67862;DHT22;54665;51.462;6.698;2023-12-20T08:28:45;7.54;88.85
67862;DHT22;54665;51.462;6.698;2023-12-20T08:30:45;7.56;89.09
67862;DHT22;54665;51.462;6.698;2023-12-20T08:32:45;7.63;88.76
67862;DHT22;54665;51.462;6.698;2023-12-20T08:34:46;7.46;89.05
67862;DHT22;54665;51.462;6.698;2023-12-20T08:36:46;7.50;88.75
67862;DHT22;54665;51.462;6.698;2023-12-20T08:38:47;7.51;88.87
67862;DHT22;54665;51.462;6.698;2023-12-20T08:40:47;7.49;88.38
67862;DHT22;54665;51.462;6.698;2023-12-20T08:42:48;7.44;88.31
67862;DHT22;54665;51.462;6.698;2023-12-20T08:44:48;7.64;88.17
67862;DHT22;54665;51.462;6.698;2023-12-20T08:46:48;7.63;88.37
67862;DHT22;54665;51.462;6.698;2023-12-20T08:48:48;7.66;88.51
67862;DHT22;54665;51.462;6.698;2023-12-20T08:50:49;7.60;88.38
67862;DHT22;54665;51.462;6.698;2023-12-20T08:52:49;7.57;88.35
67862;DHT22;54665;51.462;6.698;2023-12-20T08:54:50;7.57;88.04
67862;DHT22;54665;51.462;6.698;2023-12-20T08:56:50;7.56;88.46
67862;DHT22;54665;51.462;6.698;2023-12-20T08:58:50;7.57;88.16
67862;DHT22;54665;51.462;6.698;2023-12-20T09:00:51;7.51;88.24
67862;DHT22;54665;51.462;6.698;2023-12-20T09:02:51;7.49;88.59
67862;DHT22;54665;51.462;6.698;2023-12-20T09:04:51;7.53;89.14
67862;DHT22;54665;51.462;6.698;2023-12-20T09:06:51;7.47;88.89
67862;DHT22;54665;51.462;6.698;2023-12-20T09:08:52;7.47;89.05
67862;DHT22;54665;51.462;6.698;2023-12-20T09:10:52;7.53;88.91
67862;DHT22;54665;51.462;6.698;2023-12-20T09:12:53;7.50;88.80
67862;DHT22;54665;51.462;6.698;2023-12-20T09:14:53;7.43;89.31
67862;DHT22;54665;51.462;6.698;2023-12-20T09:16:53;7.42;88.88
67862;DHT22;54665;51.462;6.698;2023-12-20T09:18:54;7.40;89.15
67862;DHT22;54665;51.462;6.698;2023-12-20T09:20:54;7.46;89.23
67862;DHT22;54665;51.462;6.698;2023-12-20T09:22:54;7.54;88.62
67862;DHT22;54665;51.462;6.698;2023-12-20T09:24:55;7.56;88.79
67862;DHT22;54665;51.462;6.698;2023-12-20T09:26:55;7.42;88.82
67862;DHT22;54665;51.462;6.698;2023-12-20T09:28:55;7.49;88.98
67862;DHT22;54665;51.462;6.698;2023-12-20T09:30:56;7.47;88.61
67862;DHT22;54665;51.462;6.698;2023-12-20T09:32:56;7.51;88.54
67862;DHT22;54665;51.462;6.698;2023-12-20T09:34:56;7.50;88.38
67862;DHT22;54665;51.462;6.698;2023-12-20T09:36:56;7.56;88.78
67862;DHT22;54665;51.462;6.698;2023-12-20T09:38:57;7.67;88.76
67862;DHT22;54665;51.462;6.698;2023-12-20T09:40:57;7.54;88.44
67862;DHT22;54665;51.462;6.698;2023-12-20T09:43:03;7.70;88.43
67862;DHT22;54665;51.462;6.698;2023-12-20T09:45:06;7.63;88.49
67862;DHT22;54665;51.462;6.698;2023-12-20T09:47:08;7.53;88.49
67862;DHT22;54665;51.462;6.698;2023-12-20T09:49:08;7.64;88.63
67862;DHT22;54665;51.462;6.698;2023-12-20T09:51:10;7.56;88.55
67862;DHT22;54665;51.462;6.698;2023-12-20T09:53:12;7.64;88.59
67862;DHT22;54665;51.462;6.698;2023-12-20T09:55:15;7.63;88.50
67862;DHT22;54665;51.462;6.698;2023-12-20T09:57:17;7.61;88.39
67862;DHT22;54665;51.462;6.698;2023-12-20T09:59:17;7.70;88.62
67862;DHT22;54665;51.462;6.698;2023-12-20T10:01:18;7.61;88.41
67862;DHT22;54665;51.462;6.698;2023-12-20T10:03:21;7.67;88.23
67862;DHT22;54665;51.462;6.698;2023-12-20T10:05:29;7.74;88.18
67862;DHT22;54665;51.462;6.698;2023-12-20T10:07:29;7.73;88.38
67862;DHT22;54665;51.462;6.698;2023-12-20T10:09:31;7.95;87.84
67862;DHT22;54665;51.462;6.698;2023-12-20T10:11:32;7.95;88.04
67862;DHT22;54665;51.462;6.698;2023-12-20T10:13:32;7.97;87.42
67862;DHT22;54665;51.462;6.698;2023-12-20T10:15:33;8.12;87.45
67862;DHT22;54665;51.462;6.698;2023-12-20T10:17:33;8.09;87.71
67862;DHT22;54665;51.462;6.698;2023-12-20T10:19:33;7.99;87.87
67862;DHT22;54665;51.462;6.698;2023-12-20T10:21:34;8.09;87.56
67862;DHT22;54665;51.462;6.698;2023-12-20T10:23:34;8.11;87.51
67862;DHT22;54665;51.462;6.698;2023-12-20T10:25:35;8.22;87.05
67862;DHT22;54665;51.462;6.698;2023-12-20T10:27:35;8.16;86.69
67862;DHT22;54665;51.462;6.698;2023-12-20T10:29:36;8.22;87.05
67862;DHT22;54665;51.462;6.698;2023-12-20T10:31:36;8.32;87.37
67862;DHT22;54665;51.462;6.698;2023-12-20T10:33:40;8.28;87.21
67862;DHT22;54665;51.462;6.698;2023-12-20T10:35:40;8.22;87.38
67862;DHT22;54665;51.462;6.698;2023-12-20T10:37:40;8.18;87.08
67862;DHT22;54665;51.462;6.698;2023-12-20T10:39:42;8.29;87.22
67862;DHT22;54665;51.462;6.698;2023-12-20T10:41:43;8.26;87.36
67862;DHT22;54665;51.462;6.698;2023-12-20T10:43:45;8.36;87.07
67862;DHT22;54665;51.462;6.698;2023-12-20T10:45:45;8.33;86.64
67862;DHT22;54665;51.462;6.698;2023-12-20T10:47:49;8.24;86.56
67862;DHT22;54665;51.462;6.698;2023-12-20T10:49:52;8.31;86.76
67862;DHT22;54665;51.462;6.698;2023-12-20T10:51:54;8.14;87.41
67862;DHT22;54665;51.462;6.698;2023-12-20T10:53:55;8.20;87.23
67862;DHT22;54665;51.462;6.698;2023-12-20T10:55:55;8.14;86.89
67862;DHT22;54665;51.462;6.698;2023-12-20T10:58:07;8.16;86.79
67862;DHT22;54665;51.462;6.698;2023-12-20T11:00:08;8.28;87.14
67862;DHT22;54665;51.462;6.698;2023-12-20T11:02:13;8.14;87.49
67862;DHT22;54665;51.462;6.698;2023-12-20T11:04:21;8.21;87.58
67862;DHT22;54665;51.462;6.698;2023-12-20T11:06:44;8.14;87.33
67862;DHT22;54665;51.462;6.698;2023-12-20T11:08:51;8.20;87.45
67862;DHT22;54665;51.462;6.698;2023-12-20T11:11:34;8.38;86.93
67862;DHT22;54665;51.462;6.698;2023-12-20T11:13:54;8.24;87.61
67862;DHT22;54665;51.462;6.698;2023-12-20T11:15:57;8.45;86.79
67862;DHT22;54665;51.462;6.698;2023-12-20T11:17:58;8.60;86.13
67862;DHT22;54665;51.462;6.698;2023-12-20T11:21:59;8.48;86.50
67862;DHT22;54665;51.462;6.698;2023-12-20T11:23:59;8.53;86.49
67862;DHT22;54665;51.462;6.698;2023-12-20T11:26:02;8.66;86.43
67862;DHT22;54665;51.462;6.698;2023-12-20T11:28:09;8.70;86.05
67862;DHT22;54665;51.462;6.698;2023-12-20T11:30:10;8.57;86.69
67862;DHT22;54665;51.462;6.698;2023-12-20T11:32:29;8.48;86.76
67862;DHT22;54665;51.462;6.698;2023-12-20T11:34:32;8.49;86.78
67862;DHT22;54665;51.462;6.698;2023-12-20T11:36:33;8.55;86.39
67862;DHT22;54665;51.462;6.698;2023-12-20T11:38:37;8.55;86.20
67862;DHT22;54665;51.462;6.698;2023-12-20T11:40:37;8.55;87.12
67862;DHT22;54665;51.462;6.698;2023-12-20T11:42:42;8.48;86.61
67862;DHT22;54665;51.462;6.698;2023-12-20T11:44:42;8.48;86.82
67862;DHT22;54665;51.462;6.698;2023-12-20T11:46:44;8.48;86.96
67862;DHT22;54665;51.462;6.698;2023-12-20T11:48:44;8.50;87.29
67862;DHT22;54665;51.462;6.698;2023-12-20T11:50:44;8.28;87.76
67862;DHT22;54665;51.462;6.698;2023-12-20T11:52:45;8.48;87.84
67862;DHT22;54665;51.462;6.698;2023-12-20T11:54:45;8.50;87.71
67862;DHT22;54665;51.462;6.698;2023-12-20T11:56:46;8.41;87.91
67862;DHT22;54665;51.462;6.698;2023-12-20T11:58:47;8.41;87.60
67862;DHT22;54665;51.462;6.698;2023-12-20T12:00:49;8.36;87.68
67862;DHT22;54665;51.462;6.698;2023-12-20T12:02:59;8.45;87.54
67862;DHT22;54665;51.462;6.698;2023-12-20T12:05:00;8.49;87.30
67862;DHT22;54665;51.462;6.698;2023-12-20T12:07:00;8.56;87.54
67862;DHT22;54665;51.462;6.698;2023-12-20T12:09:00;8.70;87.02
67862;DHT22;54665;51.462;6.698;2023-12-20T12:11:01;8.63;87.11
67862;DHT22;54665;51.462;6.698;2023-12-20T12:13:01;8.64;87.00
67862;DHT22;54665;51.462;6.698;2023-12-20T12:15:02;8.63;87.42
67862;DHT22;54665;51.462;6.698;2023-12-20T12:17:03;8.60;87.77
67862;DHT22;54665;51.462;6.698;2023-12-20T12:19:03;8.66;87.47
67862;DHT22;54665;51.462;6.698;2023-12-20T12:21:04;8.69;87.65
67862;DHT22;54665;51.462;6.698;2023-12-20T12:23:05;8.69;87.00
67862;DHT22;54665;51.462;6.698;2023-12-20T12:25:12;8.80;86.77
67862;DHT22;54665;51.462;6.698;2023-12-20T12:27:13;8.67;86.92
67862;DHT22;54665;51.462;6.698;2023-12-20T12:29:14;8.69;86.70
67862;DHT22;54665;51.462;6.698;2023-12-20T12:31:14;8.63;87.26
67862;DHT22;54665;51.462;6.698;2023-12-20T12:33:15;8.59;87.10
67862;DHT22;54665;51.462;6.698;2023-12-20T12:35:15;8.45;87.72
67862;DHT22;54665;51.462;6.698;2023-12-20T12:37:15;8.59;87.17
67862;DHT22;54665;51.462;6.698;2023-12-20T12:39:17;8.64;86.76
67862;DHT22;54665;51.462;6.698;2023-12-20T12:41:18;8.55;87.07
67862;DHT22;54665;51.462;6.698;2023-12-20T12:43:18;8.49;87.34
67862;DHT22;54665;51.462;6.698;2023-12-20T12:45:18;8.57;87.36
67862;DHT22;54665;51.462;6.698;2023-12-20T12:47:19;8.66;87.47
67862;DHT22;54665;51.462;6.698;2023-12-20T12:49:20;8.36;88.15
67862;DHT22;54665;51.462;6.698;2023-12-20T12:51:20;8.43;87.95
67862;DHT22;54665;51.462;6.698;2023-12-20T12:53:20;8.48;87.86
67862;DHT22;54665;51.462;6.698;2023-12-20T12:55:21;8.50;88.14
67862;DHT22;54665;51.462;6.698;2023-12-20T12:57:21;8.38;88.08